Time;durP1;ratioP1;P1;durP2;ratioP2;P2;SDS_P1;SDS_P2;PMS_P1;PMS_P2;Temp;Humidity;BMP_temperature;BMP_pressure;BME280_temperature;BME280_humidity;BME280_pressure;Samples;Min_cycle;Max_cycle;Signal;HPM_P1;HPM_P2
2022/04/10 00:00:54;;;;;;;27.85;14.02;;;;;;;-0.06;100.00;101706.41;5052281;28;20033;-64
2022/04/10 00:03:22;;;;;;;28.45;14.70;;;;;;;-0.06;100.00;101710.69;5058390;28;20040;-64
2022/04/10 00:05:48;;;;;;;27.77;14.30;;;;;;;-0.07;100.00;101711.53;5061920;28;20498;-64
2022/04/10 00:08:13;;;;;;;28.42;14.60;;;;;;;-0.04;100.00;101710.00;5059658;28;20025;-64
2022/04/10 00:10:38;;;;;;;28.02;14.00;;;;;;;-0.05;100.00;101713.38;5060341;28;20027;-64
2022/04/10 00:13:04;;;;;;;27.88;14.60;;;;;;;-0.04;100.00;101719.50;5056065;28;20458;-64
2022/04/10 00:15:29;;;;;;;27.73;14.05;;;;;;;-0.08;100.00;101720.13;5051342;28;20021;-64
2022/04/10 00:17:55;;;;;;;26.92;14.32;;;;;;;-0.13;100.00;101714.63;5062825;28;20029;-64
2022/04/10 00:20:20;;;;;;;28.10;14.48;;;;;;;-0.15;100.00;101705.84;5058208;28;20029;-64
2022/04/10 00:22:48;;;;;;;29.85;14.68;;;;;;;-0.15;100.00;101711.03;5055678;28;20060;-64
2022/04/10 00:25:15;;;;;;;26.63;14.18;;;;;;;-0.17;100.00;101707.44;5057341;28;20103;-64
2022/04/10 00:27:41;;;;;;;27.00;14.35;;;;;;;-0.19;100.00;101704.75;5056971;28;20379;-64
2022/04/10 00:30:08;;;;;;;27.77;13.82;;;;;;;-0.18;100.00;101709.13;5055270;28;20112;-65
2022/04/10 00:32:33;;;;;;;26.55;14.65;;;;;;;-0.20;100.00;101708.16;5061853;28;20025;-64
2022/04/10 00:34:59;;;;;;;28.00;14.90;;;;;;;-0.18;100.00;101708.25;5051828;28;20115;-64
2022/04/10 00:37:26;;;;;;;28.50;15.02;;;;;;;-0.21;100.00;101708.94;5058057;28;20031;-64
2022/04/10 00:39:52;;;;;;;27.73;15.25;;;;;;;-0.23;100.00;101704.47;5054186;28;20025;-64
2022/04/10 00:42:17;;;;;;;27.08;15.02;;;;;;;-0.28;100.00;101703.28;5063248;28;20082;-64
2022/04/10 00:44:42;;;;;;;30.35;15.77;;;;;;;-0.27;100.00;101705.09;5063091;28;20029;-64
2022/04/10 00:47:10;;;;;;;30.33;16.70;;;;;;;-0.25;100.00;101695.69;5063269;28;20028;-64
2022/04/10 00:49:38;;;;;;;31.63;16.55;;;;;;;-0.21;100.00;101695.94;5059889;28;20025;-66
2022/04/10 00:52:07;;;;;;;30.58;17.50;;;;;;;-0.21;100.00;101698.56;5063297;28;20021;-64
2022/04/10 00:54:33;;;;;;;31.20;18.38;;;;;;;-0.21;100.00;101693.34;5060935;28;20371;-64
2022/04/10 00:57:01;;;;;;;31.20;19.02;;;;;;;-0.20;100.00;101702.06;5061343;28;20017;-65
2022/04/10 00:59:27;;;;;;;32.47;19.33;;;;;;;-0.20;100.00;101692.56;5042096;28;20082;-66
2022/04/10 01:01:53;;;;;;;32.25;19.35;;;;;;;-0.21;100.00;101695.06;5062930;28;20372;-65
2022/04/10 01:04:18;;;;;;;31.08;19.38;;;;;;;-0.24;100.00;101700.06;5065850;28;20063;-66
2022/04/10 01:06:47;;;;;;;32.88;19.85;;;;;;;-0.26;100.00;101696.47;5060705;28;20056;-64
2022/04/10 01:09:12;;;;;;;36.03;21.45;;;;;;;-0.19;100.00;101693.44;5057480;28;20025;-64
2022/04/10 01:11:38;;;;;;;31.60;20.00;;;;;;;-0.22;100.00;101698.47;5061298;28;20029;-64
2022/04/10 01:14:06;;;;;;;33.55;20.45;;;;;;;-0.21;100.00;101701.16;5060344;28;20079;-64
2022/04/10 01:16:34;;;;;;;32.75;20.83;;;;;;;-0.14;100.00;101701.56;5063633;28;20056;-66
2022/04/10 01:19:02;;;;;;;33.22;21.55;;;;;;;-0.07;100.00;101698.53;5051595;28;20028;-64
2022/04/10 01:21:28;;;;;;;32.97;22.00;;;;;;;-0.01;100.00;101694.56;5058922;28;20037;-64
2022/04/10 01:23:55;;;;;;;34.08;22.63;;;;;;;0.03;100.00;101695.69;5059005;28;20433;-65
2022/04/10 01:26:22;;;;;;;32.05;22.42;;;;;;;0.08;100.00;101695.94;5064809;28;20032;-65
2022/04/10 01:29:02;;;;;;;35.63;23.45;;;;;;;0.13;100.00;101698.03;5066980;28;20108;-65
2022/04/10 01:31:30;;;;;;;34.58;23.42;;;;;;;0.17;100.00;101704.28;5063144;28;20029;-65
2022/04/10 01:33:58;;;;;;;35.72;23.35;;;;;;;0.19;100.00;101707.91;5060224;28;20020;-68
2022/04/10 01:36:25;;;;;;;33.25;22.50;;;;;;;0.21;100.00;101706.28;5059531;28;20021;-66
2022/04/10 01:38:53;;;;;;;33.50;22.33;;;;;;;0.20;100.00;101704.47;5058061;28;20017;-64
2022/04/10 01:41:19;;;;;;;34.05;23.65;;;;;;;0.19;100.00;101701.78;5059583;28;20039;-67
2022/04/10 01:43:49;;;;;;;33.42;22.00;;;;;;;0.20;100.00;101704.47;5060362;28;20543;-65
2022/04/10 01:46:15;;;;;;;32.15;22.48;;;;;;;0.19;100.00;101702.72;5055955;28;20440;-66
2022/04/10 01:48:42;;;;;;;34.28;23.13;;;;;;;0.20;100.00;101706.19;5061058;28;20083;-64
2022/04/10 01:51:08;;;;;;;34.80;23.83;;;;;;;0.20;100.00;101704.47;5061919;28;20040;-65
2022/04/10 01:53:34;;;;;;;33.13;23.20;;;;;;;0.15;100.00;101708.53;5055261;28;20021;-65
2022/04/10 01:56:00;;;;;;;33.08;23.35;;;;;;;0.10;100.00;101708.25;5059948;28;20032;-65
2022/04/10 01:58:25;;;;;;;33.95;24.27;;;;;;;0.07;100.00;101712.34;5054939;28;20041;-65
2022/04/10 02:00:51;;;;;;;34.30;24.20;;;;;;;0.01;100.00;101717.19;5059512;28;20032;-65
2022/04/10 02:03:16;;;;;;;34.42;24.70;;;;;;;-0.02;100.00;101718.78;5060632;28;20116;-65
2022/04/10 02:05:41;;;;;;;34.60;24.65;;;;;;;-0.10;100.00;101722.63;5062975;28;20495;-64
2022/04/10 02:08:07;;;;;;;34.20;24.15;;;;;;;-0.19;100.00;101725.56;5059274;28;20108;-64
2022/04/10 02:10:33;;;;;;;34.78;24.90;;;;;;;-0.24;100.00;101728.66;5064358;28;20070;-64
2022/04/10 02:12:59;;;;;;;36.42;25.63;;;;;;;-0.28;100.00;101722.38;5061891;28;20036;-64
2022/04/10 02:15:24;;;;;;;35.80;26.67;;;;;;;-0.29;100.00;101727.47;5062105;28;20032;-65
2022/04/10 02:17:50;;;;;;;36.20;26.48;;;;;;;-0.32;100.00;101722.09;5061863;28;20047;-64
2022/04/10 02:20:15;;;;;;;37.45;26.63;;;;;;;-0.33;100.00;101715.09;5050853;28;20048;-65
2022/04/10 02:22:40;;;;;;;38.03;27.88;;;;;;;-0.36;100.00;101710.63;5062399;28;20387;-64
2022/04/10 02:25:06;;;;;;;36.15;28.02;;;;;;;-0.37;100.00;101722.69;5053314;28;20480;-65
2022/04/10 02:27:31;;;;;;;37.70;28.35;;;;;;;-0.39;100.00;101719.09;5058286;28;20036;-64
2022/04/10 02:29:56;;;;;;;38.28;28.25;;;;;;;-0.42;100.00;101715.44;5059845;28;20029;-64
2022/04/10 02:32:23;;;;;;;38.50;29.23;;;;;;;-0.46;100.00;101714.31;5056213;28;20029;-64
2022/04/10 02:34:48;;;;;;;39.03;29.95;;;;;;;-0.46;100.00;101723.84;5057567;28;20107;-64
2022/04/10 02:37:14;;;;;;;38.72;29.80;;;;;;;-0.48;100.00;101720.22;5058481;28;20120;-65
2022/04/10 02:39:39;;;;;;;40.15;29.48;;;;;;;-0.52;100.00;101719.16;5058230;28;20360;-65
2022/04/10 02:42:05;;;;;;;38.38;29.17;;;;;;;-0.58;100.00;101724.84;5044390;28;20028;-65
2022/04/10 02:44:30;;;;;;;39.50;29.27;;;;;;;-0.57;100.00;101728.34;5056326;28;20071;-64
2022/04/10 02:46:56;;;;;;;38.30;29.80;;;;;;;-0.61;100.00;101734.13;5055756;28;20028;-65
2022/04/10 02:49:21;;;;;;;39.60;30.25;;;;;;;-0.63;100.00;101734.03;5059795;28;20024;-65
2022/04/10 02:51:49;;;;;;;39.00;30.35;;;;;;;-0.63;100.00;101741.81;5052973;28;20031;-64
2022/04/10 02:54:15;;;;;;;39.08;29.60;;;;;;;-0.68;100.00;101737.13;5048692;28;20074;-66
2022/04/10 02:56:41;;;;;;;40.05;30.42;;;;;;;-0.69;100.00;101749.22;5048887;28;20464;-66
2022/04/10 02:59:06;;;;;;;38.25;29.08;;;;;;;-0.74;100.00;101737.66;5058655;28;20040;-64
2022/04/10 03:01:32;;;;;;;37.15;28.88;;;;;;;-0.80;100.00;101740.75;5053537;28;20068;-65
2022/04/10 03:03:57;;;;;;;37.22;28.48;;;;;;;-0.82;100.00;101742.34;5057056;28;20084;-66
2022/04/10 03:06:22;;;;;;;37.63;29.05;;;;;;;-0.81;100.00;101738.94;5062474;28;20032;-64
2022/04/10 03:08:48;;;;;;;41.80;31.70;;;;;;;-0.81;100.00;101746.75;5057279;28;20051;-67
2022/04/10 03:11:13;;;;;;;39.10;32.55;;;;;;;-0.75;100.00;101748.84;5054491;28;20483;-65
2022/04/10 03:13:38;;;;;;;40.63;30.85;;;;;;;-0.83;100.00;101742.25;5056664;28;20023;-65
2022/04/10 03:16:04;;;;;;;38.90;29.70;;;;;;;-0.88;100.00;101753.22;5054075;28;20073;-65
2022/04/10 03:18:29;;;;;;;37.50;29.42;;;;;;;-0.95;100.00;101744.94;5058783;28;20036;-65
2022/04/10 03:20:55;;;;;;;36.85;29.20;;;;;;;-0.97;100.00;101754.34;5059028;28;20028;-64
2022/04/10 03:23:20;;;;;;;39.97;30.73;;;;;;;-0.99;100.00;101750.72;5054669;28;20482;-64
2022/04/10 03:25:45;;;;;;;40.20;30.80;;;;;;;-1.08;100.00;101749.34;5060739;28;20028;-66
2022/04/10 03:28:10;;;;;;;39.17;31.65;;;;;;;-1.07;100.00;101747.63;5061993;28;20031;-64
2022/04/10 03:30:36;;;;;;;40.67;31.35;;;;;;;-1.11;100.00;101749.13;5053323;28;20060;-66
2022/04/10 03:33:01;;;;;;;40.13;32.03;;;;;;;-1.03;100.00;101761.69;5060478;28;20028;-67
2022/04/10 03:35:26;;;;;;;40.22;32.60;;;;;;;-1.02;100.00;101760.91;5057039;28;20028;-65
2022/04/10 03:37:52;;;;;;;42.30;32.95;;;;;;;-1.13;100.00;101761.09;5058596;28;20031;-66
2022/04/10 03:40:17;;;;;;;39.20;31.58;;;;;;;-1.17;100.00;101763.41;5057909;28;20025;-67
2022/04/10 03:42:42;;;;;;;41.65;33.67;;;;;;;-1.21;100.00;101758.78;5059458;28;20048;-67
2022/04/10 03:45:09;;;;;;;41.97;33.15;;;;;;;-1.26;100.00;101761.97;5058091;28;20040;-64
2022/04/10 03:47:34;;;;;;;40.95;32.97;;;;;;;-1.28;100.00;101768.78;5057118;28;20029;-65
2022/04/10 03:49:59;;;;;;;40.03;31.90;;;;;;;-1.30;100.00;101765.16;5058146;28;20108;-65
2022/04/10 03:52:25;;;;;;;39.63;32.60;;;;;;;-1.30;100.00;101766.88;5057028;28;20028;-65
2022/04/10 03:54:50;;;;;;;42.08;32.78;;;;;;;-1.26;100.00;101761.97;5061623;28;20182;-70
2022/04/10 03:57:15;;;;;;;42.47;32.35;;;;;;;-1.29;100.00;101769.56;5057222;28;20037;-66
2022/04/10 03:59:41;;;;;;;39.60;32.47;;;;;;;-1.23;100.00;101767.38;5059468;28;20044;-64
2022/04/10 04:02:06;;;;;;;39.97;31.77;;;;;;;-1.24;100.00;101767.25;5056306;28;20102;-64
2022/04/10 04:04:31;;;;;;;40.67;31.48;;;;;;;-1.28;100.00;101768.78;5060755;28;20062;-64
2022/04/10 04:06:57;;;;;;;39.83;30.98;;;;;;;-1.26;100.00;101776.66;5056870;28;20420;-67
2022/04/10 04:09:23;;;;;;;36.83;30.27;;;;;;;-1.27;100.00;101769.66;5058709;28;20586;-67
2022/04/10 04:11:48;;;;;;;38.03;30.35;;;;;;;-1.21;100.00;101770.06;5058732;28;20033;-64
2022/04/10 04:14:13;;;;;;;38.50;30.23;;;;;;;-1.27;100.00;101780.03;5055648;28;20040;-64
2022/04/10 04:16:40;;;;;;;37.03;29.00;;;;;;;-1.29;100.00;101787.72;5059333;28;20483;-64
2022/04/10 04:19:05;;;;;;;38.42;29.52;;;;;;;-1.33;100.00;101775.34;5055304;28;20171;-64
2022/04/10 04:21:31;;;;;;;36.55;28.13;;;;;;;-1.33;100.00;101787.41;5053567;28;20444;-65
2022/04/10 04:23:56;;;;;;;36.83;28.27;;;;;;;-1.34;100.00;101788.19;5050372;28;20057;-64
2022/04/10 04:26:25;;;;;;;38.40;28.95;;;;;;;-1.34;100.00;101785.59;5050817;28;20110;-64
2022/04/10 04:28:51;;;;;;;37.17;29.00;;;;;;;-1.34;100.00;101781.34;5044757;28;20103;-65
2022/04/10 04:31:16;;;;;;;39.90;30.50;;;;;;;-1.38;100.00;101786.19;5056244;28;20049;-65
2022/04/10 04:33:42;;;;;;;39.35;29.58;;;;;;;-1.32;100.00;101790.13;5044507;28;20036;-66
2022/04/10 04:36:07;;;;;;;40.15;31.77;;;;;;;-1.30;100.00;101785.03;5056010;28;20044;-65
2022/04/10 04:38:32;;;;;;;42.67;32.75;;;;;;;-1.27;100.00;101787.81;5058081;28;20029;-65
2022/04/10 04:40:58;;;;;;;42.42;32.08;;;;;;;-1.21;100.00;101793.41;5056137;28;20029;-64
2022/04/10 04:43:27;;;;;;;41.47;32.55;;;;;;;-1.18;100.00;101788.47;5055166;28;20067;-66
2022/04/10 04:45:52;;;;;;;41.47;33.00;;;;;;;-1.14;100.00;101790.44;5056632;28;20053;-65
2022/04/10 04:48:17;;;;;;;40.10;31.55;;;;;;;-1.10;100.00;101792.44;5057409;28;20514;-66
2022/04/10 04:50:44;;;;;;;39.97;31.13;;;;;;;-1.07;100.00;101789.16;5054261;28;20027;-67
2022/04/10 04:53:09;;;;;;;40.42;30.20;;;;;;;-1.01;100.00;101788.69;5055324;28;20029;-65
2022/04/10 04:55:34;;;;;;;38.97;30.10;;;;;;;-1.00;100.00;101790.47;5057050;28;20127;-67
2022/04/10 04:58:00;;;;;;;37.08;29.52;;;;;;;-1.01;100.00;101789.56;5039182;28;20487;-70
2022/04/10 05:00:25;;;;;;;38.75;30.52;;;;;;;-0.99;100.00;101789.66;5056656;28;20111;-66
2022/04/10 05:02:50;;;;;;;43.38;30.85;;;;;;;-0.98;100.00;101788.88;5057791;28;20041;-66
2022/04/10 05:05:16;;;;;;;39.22;29.63;;;;;;;-0.96;100.00;101797.66;5050424;28;20387;-65
2022/04/10 05:07:41;;;;;;;40.65;30.20;;;;;;;-0.89;100.00;101805.03;5059319;28;20029;-65
2022/04/10 05:10:07;;;;;;;41.35;30.00;;;;;;;-0.86;100.00;101804.34;5056931;28;20035;-64
2022/04/10 05:12:34;;;;;;;38.35;29.08;;;;;;;-0.76;100.00;101814.53;5056526;28;20017;-66
2022/04/10 05:15:00;;;;;;;39.08;29.90;;;;;;;-0.74;100.00;101813.84;5057487;28;20052;-68
2022/04/10 05:17:26;;;;;;;36.85;28.13;;;;;;;-0.74;100.00;101819.06;5049542;28;20460;-65
2022/04/10 05:19:52;;;;;;;36.78;27.50;;;;;;;-0.75;100.00;101814.66;5060395;28;20025;-68
2022/04/10 05:22:18;;;;;;;37.28;27.65;;;;;;;-0.76;100.00;101825.84;5056321;28;20024;-67
2022/04/10 05:24:43;;;;;;;36.58;27.25;;;;;;;-0.79;100.00;101827.34;5054922;28;20025;-65
2022/04/10 05:27:10;;;;;;;34.40;26.13;;;;;;;-0.79;100.00;101811.75;5058289;28;20055;-65
2022/04/10 05:29:36;;;;;;;37.67;26.85;;;;;;;-0.85;100.00;101826.94;5044307;28;20036;-66
2022/04/10 05:32:02;;;;;;;35.28;26.55;;;;;;;-0.84;100.00;101831.34;5059159;28;20032;-65
2022/04/10 05:34:27;;;;;;;35.67;26.00;;;;;;;-0.90;100.00;101831.84;5060132;28;20459;-65
2022/04/10 05:36:53;;;;;;;36.58;27.55;;;;;;;-0.88;100.00;101827.63;5053311;28;20075;-65
2022/04/10 05:39:18;;;;;;;36.72;27.70;;;;;;;-0.84;100.00;101839.13;5057649;28;20037;-66
2022/04/10 05:41:43;;;;;;;36.85;27.00;;;;;;;-0.80;100.00;101836.84;5061051;28;20024;-66
2022/04/10 05:44:09;;;;;;;35.10;24.92;;;;;;;-0.72;100.00;101839.94;5051316;28;20036;-66
2022/04/10 05:46:38;;;;;;;36.03;24.02;;;;;;;-0.66;100.00;101844.63;5055142;28;20034;-67
2022/04/10 05:49:05;;;;;;;34.00;24.20;;;;;;;-0.59;100.00;101849.44;5050215;28;20044;-64
2022/04/10 05:51:31;;;;;;;33.45;23.33;;;;;;;-0.49;100.00;101851.81;5062235;28;20047;-65
2022/04/10 05:53:56;;;;;;;35.20;23.67;;;;;;;-0.42;100.00;101859.22;5061470;28;20467;-65
2022/04/10 05:56:22;;;;;;;33.78;22.77;;;;;;;-0.32;100.00;101857.22;5056459;28;20136;-65
2022/04/10 05:58:47;;;;;;;34.30;23.80;;;;;;;-0.22;100.00;101860.53;5059298;28;20055;-65
2022/04/10 06:01:12;;;;;;;34.92;21.85;;;;;;;-0.15;100.00;101860.91;5053718;28;20435;-65
2022/04/10 06:03:38;;;;;;;31.55;21.33;;;;;;;-0.07;100.00;101865.78;5054413;28;20051;-64
2022/04/10 06:06:04;;;;;;;32.13;21.08;;;;;;;0.04;100.00;101868.19;5058206;28;20025;-65
2022/04/10 06:08:29;;;;;;;32.05;19.35;;;;;;;0.08;100.00;101872.78;5060008;28;20032;-65
2022/04/10 06:10:55;;;;;;;31.20;19.60;;;;;;;0.18;100.00;101880.34;5058232;28;20387;-67
2022/04/10 06:13:21;;;;;;;31.42;19.40;;;;;;;0.28;100.00;101867.13;5061166;28;20467;-65
2022/04/10 06:15:47;;;;;;;30.77;20.02;;;;;;;0.42;100.00;101874.88;5059594;28;20752;-65
2022/04/10 06:18:13;;;;;;;30.80;19.30;;;;;;;0.56;100.00;101880.94;5058127;28;20021;-66
2022/04/10 06:20:38;;;;;;;30.40;19.25;;;;;;;0.71;100.00;101889.66;5052546;28;20159;-65
2022/04/10 06:23:03;;;;;;;30.85;19.15;;;;;;;0.85;100.00;101886.19;5061528;28;20109;-66
2022/04/10 06:25:29;;;;;;;29.77;18.25;;;;;;;0.98;100.00;101890.44;5060609;28;20055;-65
2022/04/10 06:27:56;;;;;;;30.50;17.83;;;;;;;1.12;100.00;101895.59;5058149;28;20024;-65
2022/04/10 06:30:22;;;;;;;29.63;17.02;;;;;;;1.25;100.00;101895.50;5059553;28;20016;-67
2022/04/10 06:32:47;;;;;;;29.40;16.48;;;;;;;1.38;100.00;101900.63;5057678;28;20028;-66
2022/04/10 06:35:13;;;;;;;29.00;15.52;;;;;;;1.52;100.00;101903.16;5060334;28;20029;-64
2022/04/10 06:37:39;;;;;;;28.30;15.50;;;;;;;1.66;100.00;101910.06;5061073;28;20025;-65
2022/04/10 06:40:05;;;;;;;29.13;15.90;;;;;;;1.78;100.00;101912.47;5054399;28;20028;-66
2022/04/10 06:42:31;;;;;;;29.08;16.38;;;;;;;1.94;100.00;101914.25;5057267;28;20115;-64
2022/04/10 06:44:56;;;;;;;28.50;16.13;;;;;;;2.04;100.00;101910.41;5057961;28;20107;-64
2022/04/10 06:47:21;;;;;;;27.85;14.88;;;;;;;2.13;100.00;101910.06;5061200;28;20099;-64
2022/04/10 06:49:47;;;;;;;28.73;15.45;;;;;;;2.30;100.00;101921.41;5057928;28;20494;-65
2022/04/10 06:52:12;;;;;;;29.20;15.77;;;;;;;2.39;100.00;101917.59;5060629;28;20021;-64
2022/04/10 06:54:37;;;;;;;28.05;15.65;;;;;;;2.53;100.00;101923.56;5056130;28;20554;-63
2022/04/10 06:57:03;;;;;;;28.20;15.13;;;;;;;2.65;100.00;101927.66;5061773;28;20490;-63
2022/04/10 06:59:28;;;;;;;27.50;15.30;;;;;;;2.74;100.00;101923.84;5036095;28;20132;-63
2022/04/10 07:01:53;;;;;;;26.52;14.65;;;;;;;2.87;100.00;101922.78;5059153;28;20082;-64
2022/04/10 07:04:19;;;;;;;27.08;15.43;;;;;;;2.99;100.00;101932.97;5060661;28;20378;-64
2022/04/10 07:06:50;;;;;;;26.50;13.95;;;;;;;3.12;100.00;101930.19;5042246;28;20036;-64
2022/04/10 07:09:15;;;;;;;27.00;14.55;;;;;;;3.22;100.00;101934.16;5055793;28;20539;-68
2022/04/10 07:11:41;;;;;;;27.25;12.90;;;;;;;3.27;100.00;101931.78;5058388;28;20053;-65
2022/04/10 07:14:06;;;;;;;26.42;12.77;;;;;;;3.38;100.00;101930.63;5057352;28;20028;-67
2022/04/10 07:16:32;;;;;;;26.30;12.35;;;;;;;3.52;100.00;101940.88;5034768;28;20064;-69
2022/04/10 07:18:57;;;;;;;25.27;10.60;;;;;;;3.59;100.00;101943.00;5060751;28;20025;-66
2022/04/10 07:23:41;;;;;;;24.15;11.07;;;;;;;3.69;100.00;101931.28;5059135;28;20053;-64
2022/04/10 07:24:09;;;;;;;24.38;12.52;;;;;;;3.80;100.00;101941.44;5055822;28;20039;-67
2022/04/10 07:26:34;;;;;;;25.55;11.77;;;;;;;3.94;100.00;101938.59;5057588;28;20021;-65
2022/04/10 07:29:00;;;;;;;25.85;12.20;;;;;;;4.06;100.00;101933.06;5058783;28;20024;-66
2022/04/10 07:31:25;;;;;;;23.73;10.52;;;;;;;4.15;100.00;101934.41;5034817;28;20032;-63
2022/04/10 07:33:50;;;;;;;23.30;9.80;;;;;;;4.28;100.00;101942.84;5058897;28;20029;-64
2022/04/10 07:36:16;;;;;;;25.10;11.07;;;;;;;4.47;100.00;101939.38;5040075;28;20037;-63
2022/04/10 07:38:41;;;;;;;23.88;9.25;;;;;;;4.47;100.00;101948.13;5059181;28;20104;-65
2022/04/10 07:41:06;;;;;;;25.63;10.43;;;;;;;4.63;100.00;101949.75;5056028;28;20036;-64
2022/04/10 07:43:32;;;;;;;23.58;9.73;;;;;;;4.71;100.00;101950.97;5058719;28;20025;-69
2022/04/10 07:48:44;;;;;;;24.02;9.63;;;;;;;4.94;100.00;101961.63;5057348;28;20067;-64
2022/04/10 07:51:10;;;;;;;22.95;9.18;;;;;;;5.02;100.00;101964.59;5055214;28;20044;-66
2022/04/10 07:53:35;;;;;;;24.52;9.93;;;;;;;5.17;100.00;101969.59;5053627;28;20108;-65
2022/04/10 07:56:00;;;;;;;23.05;8.90;;;;;;;5.48;100.00;101970.97;5059891;28;20036;-64
2022/04/10 07:58:26;;;;;;;23.85;8.90;;;;;;;5.83;100.00;101976.81;5058748;28;20063;-65
2022/04/10 08:00:52;;;;;;;21.90;8.15;;;;;;;6.09;100.00;101983.19;5054250;28;20100;-64
2022/04/10 08:03:17;;;;;;;22.02;7.85;;;;;;;6.30;100.00;101980.50;5056033;28;20052;-64
2022/04/10 08:05:43;;;;;;;20.55;6.45;;;;;;;6.53;100.00;101984.03;5058509;28;20449;-66
2022/04/10 08:08:10;;;;;;;19.85;5.40;;;;;;;6.67;100.00;101984.59;5059041;28;20036;-64
2022/04/10 08:10:37;;;;;;;20.55;5.72;;;;;;;6.94;100.00;101981.22;5057827;28;20029;-65
2022/04/10 08:13:02;;;;;;;20.80;6.15;;;;;;;6.96;100.00;101988.31;5056354;28;20032;-64
2022/04/10 08:15:28;;;;;;;19.40;6.70;;;;;;;7.05;100.00;101993.03;5057612;28;20033;-65
2022/04/10 08:17:54;;;;;;;21.48;6.35;;;;;;;7.28;100.00;101990.31;5056282;28;20017;-65
2022/04/10 08:20:19;;;;;;;22.00;6.20;;;;;;;7.17;100.00;101997.84;5055898;28;20033;-65
2022/04/10 08:22:49;;;;;;;19.98;5.93;;;;;;;6.97;100.00;101997.09;5059255;28;20459;-66
2022/04/10 08:25:16;;;;;;;19.88;5.88;;;;;;;7.06;100.00;101988.66;5058311;28;20045;-66
2022/04/10 08:27:41;;;;;;;20.27;6.05;;;;;;;7.05;100.00;101997.38;5056858;28;20036;-64
2022/04/10 08:30:08;;;;;;;19.73;5.05;;;;;;;7.19;100.00;102001.41;5057331;28;20028;-65
2022/04/10 08:32:42;;;;;;;18.45;5.00;;;;;;;7.39;100.00;101996.00;5057363;28;20040;-64
2022/04/10 08:35:09;;;;;;;18.52;5.28;;;;;;;7.48;100.00;102005.13;5054936;28;20152;-64
2022/04/10 08:37:35;;;;;;;17.80;4.10;;;;;;;7.47;100.00;101997.13;5052693;28;20025;-64
2022/04/10 08:40:01;;;;;;;15.88;3.63;;;;;;;7.38;100.00;102007.34;5050220;28;20028;-64
2022/04/10 08:42:27;;;;;;;16.90;3.50;;;;;;;7.19;100.00;102001.41;5056511;28;20048;-64
2022/04/10 08:44:55;;;;;;;17.50;3.80;;;;;;;7.10;100.00;102007.22;5059515;28;20480;-64
2022/04/10 08:47:21;;;;;;;18.38;4.13;;;;;;;6.95;100.00;102014.56;5056532;28;20112;-69
2022/04/10 08:49:50;;;;;;;20.20;4.95;;;;;;;6.90;100.00;102024.91;5054079;28;20029;-64
2022/04/10 08:52:17;;;;;;;17.35;4.90;;;;;;;7.06;100.00;102020.19;5057790;28;20371;-68
2022/04/10 08:54:44;;;;;;;19.65;5.85;;;;;;;7.18;100.00;102025.94;5054905;28;20531;-64
2022/04/10 08:57:09;;;;;;;24.70;14.38;;;;;;;8.22;100.00;102027.78;5059213;28;20387;-65
2022/04/10 08:59:34;;;;;;;21.88;6.47;;;;;;;10.00;100.00;102020.63;5058587;28;20028;-69
2022/04/10 09:02:00;;;;;;;18.10;4.60;;;;;;;11.01;100.00;102023.00;5054567;28;20492;-68
2022/04/10 09:04:25;;;;;;;18.58;5.25;;;;;;;12.06;96.61;102025.94;5061207;28;20033;-66
2022/04/10 09:07:07;;;;;;;18.10;4.40;;;;;;;12.68;91.80;102025.16;5058431;28;20029;-65
2022/04/10 09:09:33;;;;;;;18.40;4.97;;;;;;;13.42;82.10;102027.88;5058045;28;20130;-68
2022/04/10 09:11:59;;;;;;;16.60;4.20;;;;;;;13.76;75.69;102034.44;5058465;28;20024;-65
2022/04/10 09:14:27;;;;;;;16.73;4.13;;;;;;;14.20;74.50;102030.41;5052416;28;20033;-65
2022/04/10 09:17:15;;;;;;;17.10;3.90;;;;;;;14.61;71.53;102024.53;5062703;28;20025;-66
2022/04/10 09:19:45;;;;;;;18.65;4.00;;;;;;;14.44;50.63;102026.16;5054472;28;20426;-65
2022/04/10 09:22:23;;;;;;;17.50;3.60;;;;;;;13.78;53.09;102029.16;5059836;28;20051;-65
2022/04/10 09:25:00;;;;;;;16.40;4.07;;;;;;;13.50;55.64;102027.94;5059601;28;20112;-65
2022/04/10 09:27:31;;;;;;;17.50;3.95;;;;;;;13.33;54.68;102020.66;5058681;28;20525;-69
2022/04/10 09:29:57;;;;;;;15.70;3.90;;;;;;;13.33;52.91;102025.09;5062108;28;20020;-72
2022/04/10 09:32:23;;;;;;;14.45;3.60;;;;;;;12.43;51.09;102023.88;5052948;28;20025;-70
2022/04/10 09:34:56;;;;;;;14.05;3.15;;;;;;;11.63;52.94;102027.78;5062621;28;20526;-73
2022/04/10 09:37:21;;;;;;;14.80;3.47;;;;;;;11.10;53.47;102021.44;5059453;28;20028;-69
2022/04/10 09:39:46;;;;;;;13.85;3.70;;;;;;;11.35;51.03;102019.31;5062449;28;20035;-72
2022/04/10 09:42:14;;;;;;;15.43;3.38;;;;;;;11.16;51.67;102026.88;5054719;28;20462;-70
2022/04/10 09:44:40;;;;;;;14.98;3.70;;;;;;;11.16;52.89;102016.28;5054320;28;20025;-72
2022/04/10 09:47:09;;;;;;;14.38;3.50;;;;;;;12.62;52.56;102021.50;5060795;28;20032;-70
2022/04/10 09:49:35;;;;;;;16.45;3.70;;;;;;;14.08;49.50;102017.00;5052944;28;20025;-69
2022/04/10 09:52:12;;;;;;;15.55;3.60;;;;;;;14.15;48.47;102021.50;5059214;28;20024;-71
2022/04/10 09:54:42;;;;;;;13.77;3.22;;;;;;;14.76;46.34;102017.53;5057572;28;20017;-71
2022/04/10 09:57:13;;;;;;;13.48;3.40;;;;;;;15.80;41.64;102021.44;5060841;28;20017;-70
2022/04/10 09:59:40;;;;;;;16.58;3.60;;;;;;;15.66;40.23;102024.06;5057321;28;20033;-72
2022/04/10 10:02:07;;;;;;;16.10;3.58;;;;;;;14.86;42.13;102015.81;5060173;28;20045;-69
2022/04/10 10:04:37;;;;;;;17.30;3.40;;;;;;;14.99;41.89;102025.63;5054928;28;20376;-69
2022/04/10 10:07:14;;;;;;;12.57;3.40;;;;;;;16.64;35.75;102015.19;5061417;28;20468;-73
2022/04/10 10:09:40;;;;;;;14.07;3.20;;;;;;;17.26;33.14;102015.00;5052133;28;20032;-72
2022/04/10 10:12:06;;;;;;;10.27;3.05;;;;;;;17.00;32.47;102015.13;5056246;28;20021;-70
2022/04/10 10:14:33;;;;;;;12.23;3.40;;;;;;;17.92;32.58;102017.28;5060373;28;20475;-72
2022/04/10 10:17:01;;;;;;;14.00;3.38;;;;;;;18.68;31.84;102011.22;5060109;28;20032;-70
2022/04/10 10:19:29;;;;;;;15.20;3.53;;;;;;;19.25;31.80;102017.72;5057639;28;20120;-70
2022/04/10 10:21:56;;;;;;;13.52;3.08;;;;;;;17.83;32.33;102016.44;5062580;28;20028;-71
2022/04/10 10:24:24;;;;;;;15.07;3.10;;;;;;;16.32;34.90;102007.22;5061452;28;20067;-71
2022/04/10 10:27:28;;;;;;;15.65;3.30;;;;;;;15.33;38.07;102012.44;5056875;28;20038;-71
2022/04/10 10:29:54;;;;;;;15.90;3.30;;;;;;;14.69;37.77;102003.28;4986438;28;20038;-65
2022/04/10 10:32:31;;;;;;;15.93;3.70;;;;;;;14.77;37.78;102013.97;4982125;28;20054;-64
2022/04/10 10:34:56;;;;;;;17.42;3.50;;;;;;;14.62;38.60;101998.78;4977872;28;20537;-65
2022/04/10 10:37:30;;;;;;;15.23;3.10;;;;;;;15.89;36.50;102015.22;4985191;28;20070;-65
2022/04/10 10:39:58;;;;;;;11.00;2.97;;;;;;;16.58;33.52;101998.31;4981035;28;20034;-66
2022/04/10 10:42:24;;;;;;;14.00;3.00;;;;;;;16.80;31.42;102001.81;4983550;28;20042;-65
2022/04/10 10:44:50;;;;;;;13.15;3.00;;;;;;;17.63;31.62;101997.88;4984518;28;20054;-65
2022/04/10 10:47:22;;;;;;;15.35;3.00;;;;;;;17.90;30.49;102002.16;4984084;28;20039;-65
2022/04/10 10:49:49;;;;;;;13.83;3.20;;;;;;;18.84;29.02;102001.22;4981268;28;20067;-65
2022/04/10 10:52:15;;;;;;;11.73;2.78;;;;;;;20.42;28.03;101999.81;4985024;28;20027;-66
2022/04/10 10:54:54;;;;;;;12.55;3.20;;;;;;;21.50;26.96;102002.97;4981610;28;20674;-66
2022/04/10 10:57:40;;;;;;;11.40;3.10;;;;;;;22.72;26.47;101999.06;4979646;28;20035;-67
2022/04/10 11:00:11;;;;;;;13.73;3.33;;;;;;;23.76;23.88;102004.91;4985078;28;20572;-65
2022/04/10 11:02:37;;;;;;;12.55;3.10;;;;;;;23.78;23.01;102001.22;4983838;28;20201;-65
2022/04/10 11:05:07;;;;;;;12.25;3.17;;;;;;;21.37;26.11;101996.09;4984370;28;20033;-65
2022/04/10 11:07:39;;;;;;;13.32;3.10;;;;;;;21.65;26.02;101995.50;5035409;28;20051;-65